KAUS/AUS METAR and TAF weather

Enter ICAO airport designator
Station Type Date Time Source
KAUS METAR 2021/05/10 01:53 UTC NOAA

KAUS 100153Z 16007KT 10SM FEW039 SCT080 SCT120 26/23 A2977 RMK AO2 SLP070 T02610233


Station Type Date Time Source
KAUS Decoded METAR 2021/05/10 01:53 UTC NOAA

AUSTIN-BERGSTROM INTERNATIONAL AIRPORT, TX, United States (KAUS) 30-11N 097-41W 172M
May 09, 2021 - 09:53 PM EDT / 2021.05.10 0153 UTC
Wind: from the SSE (160 degrees) at 8 MPH (7 KT):0
Visibility: 10 mile(s):0
Sky conditions: partly cloudy
Temperature: 79.0 F (26.1 C)
Dew Point: 73.9 F (23.3 C)
Relative Humidity: 84%
Pressure (altimeter): 29.77 in. Hg (1008 hPa)
ob: KAUS 100153Z 16007KT 10SM FEW039 SCT080 SCT120 26/23 A2977 RMK AO2 SLP070 T02610233
cycle: 2

Station Type Date Time Source
KAUS TAF 2021/05/10 02:03 UTC NOAA

TAF
AMD KAUS 100201Z 1002/1106 15011KT P6SM BKN050
FM100400 09009KT P6SM OVC020
FM100700 05009KT 4SM BR OVC007
FM101600 03011KT P6SM OVC015
FM102000 02012KT P6SM OVC025

Example: see airport list